sensor_id;sensor_type;location;lat;lon;timestamp;temperature;humidity
23335;DHT22;11839;48.598;8.870;2023-03-01T00:00:54;0.60;99.30
23335;DHT22;11839;48.598;8.870;2023-03-01T00:03:21;0.60;99.20
23335;DHT22;11839;48.598;8.870;2023-03-01T00:05:48;0.60;99.10
23335;DHT22;11839;48.598;8.870;2023-03-01T00:08:15;0.50;99.30
23335;DHT22;11839;48.598;8.870;2023-03-01T00:10:41;0.50;99.20
23335;DHT22;11839;48.598;8.870;2023-03-01T00:13:08;0.50;99.40
23335;DHT22;11839;48.598;8.870;2023-03-01T00:15:39;0.60;99.30
23335;DHT22;11839;48.598;8.870;2023-03-01T00:18:07;0.70;99.40
23335;DHT22;11839;48.598;8.870;2023-03-01T00:20:34;0.70;98.90
23335;DHT22;11839;48.598;8.870;2023-03-01T00:23:01;0.70;99.00
23335;DHT22;11839;48.598;8.870;2023-03-01T00:25:27;0.70;99.20
23335;DHT22;11839;48.598;8.870;2023-03-01T00:27:54;0.70;98.90
23335;DHT22;11839;48.598;8.870;2023-03-01T00:30:21;0.60;99.20
23335;DHT22;11839;48.598;8.870;2023-03-01T00:32:49;0.60;99.10
23335;DHT22;11839;48.598;8.870;2023-03-01T00:35:16;0.60;99.30
23335;DHT22;11839;48.598;8.870;2023-03-01T00:37:43;0.60;99.10
23335;DHT22;11839;48.598;8.870;2023-03-01T00:40:11;0.50;99.30
23335;DHT22;11839;48.598;8.870;2023-03-01T00:42:38;0.50;99.30
23335;DHT22;11839;48.598;8.870;2023-03-01T00:45:06;0.50;99.30
23335;DHT22;11839;48.598;8.870;2023-03-01T00:47:33;0.50;99.30
23335;DHT22;11839;48.598;8.870;2023-03-01T00:50:01;0.50;99.30
23335;DHT22;11839;48.598;8.870;2023-03-01T00:52:28;0.30;99.50
23335;DHT22;11839;48.598;8.870;2023-03-01T00:54:55;0.40;99.80
23335;DHT22;11839;48.598;8.870;2023-03-01T00:57:23;0.40;99.50
23335;DHT22;11839;48.598;8.870;2023-03-01T00:59:50;0.40;99.70
23335;DHT22;11839;48.598;8.870;2023-03-01T01:02:18;0.50;99.70
23335;DHT22;11839;48.598;8.870;2023-03-01T01:04:45;0.60;99.40
23335;DHT22;11839;48.598;8.870;2023-03-01T01:07:14;0.70;99.20
23335;DHT22;11839;48.598;8.870;2023-03-01T01:09:41;0.70;99.20
23335;DHT22;11839;48.598;8.870;2023-03-01T01:12:08;0.60;99.10
23335;DHT22;11839;48.598;8.870;2023-03-01T01:14:35;0.40;99.50
23335;DHT22;11839;48.598;8.870;2023-03-01T01:17:02;0.40;99.90
23335;DHT22;11839;48.598;8.870;2023-03-01T01:19:29;0.20;99.80
23335;DHT22;11839;48.598;8.870;2023-03-01T01:21:56;0.20;99.90
23335;DHT22;11839;48.598;8.870;2023-03-01T01:24:24;0.30;99.90
23335;DHT22;11839;48.598;8.870;2023-03-01T01:26:51;0.20;99.90
23335;DHT22;11839;48.598;8.870;2023-03-01T01:29:18;0.30;99.90
23335;DHT22;11839;48.598;8.870;2023-03-01T01:31:45;0.40;99.90
23335;DHT22;11839;48.598;8.870;2023-03-01T01:34:14;0.30;99.90
23335;DHT22;11839;48.598;8.870;2023-03-01T01:36:42;0.20;99.90
23335;DHT22;11839;48.598;8.870;2023-03-01T01:39:09;0.10;99.90
23335;DHT22;11839;48.598;8.870;2023-03-01T01:41:40;0.10;99.90
23335;DHT22;11839;48.598;8.870;2023-03-01T01:44:14;0.20;99.90
23335;DHT22;11839;48.598;8.870;2023-03-01T01:46:43;0.00;99.90
23335;DHT22;11839;48.598;8.870;2023-03-01T01:49:17;0.20;99.90
23335;DHT22;11839;48.598;8.870;2023-03-01T01:51:47;0.10;99.90
23335;DHT22;11839;48.598;8.870;2023-03-01T01:54:18;-0.10;99.90
23335;DHT22;11839;48.598;8.870;2023-03-01T01:56:50;-0.30;99.90
23335;DHT22;11839;48.598;8.870;2023-03-01T01:59:19;-0.40;99.90
23335;DHT22;11839;48.598;8.870;2023-03-01T02:01:50;-0.40;99.90
23335;DHT22;11839;48.598;8.870;2023-03-01T02:04:17;-0.40;99.90
23335;DHT22;11839;48.598;8.870;2023-03-01T02:06:48;-0.40;99.90
23335;DHT22;11839;48.598;8.870;2023-03-01T02:09:19;-0.50;99.90
23335;DHT22;11839;48.598;8.870;2023-03-01T02:11:49;-0.50;99.90
23335;DHT22;11839;48.598;8.870;2023-03-01T02:14:16;-0.60;99.90
23335;DHT22;11839;48.598;8.870;2023-03-01T02:16:44;-0.60;99.90
23335;DHT22;11839;48.598;8.870;2023-03-01T02:19:20;-0.60;99.90
23335;DHT22;11839;48.598;8.870;2023-03-01T02:21:59;-0.50;99.90
23335;DHT22;11839;48.598;8.870;2023-03-01T02:24:36;-0.60;99.90
23335;DHT22;11839;48.598;8.870;2023-03-01T02:27:07;-0.40;99.90
23335;DHT22;11839;48.598;8.870;2023-03-01T02:29:36;-0.50;99.90
23335;DHT22;11839;48.598;8.870;2023-03-01T02:32:04;-0.60;99.90
23335;DHT22;11839;48.598;8.870;2023-03-01T02:34:31;-0.40;99.90
23335;DHT22;11839;48.598;8.870;2023-03-01T02:37:01;-0.30;99.90
23335;DHT22;11839;48.598;8.870;2023-03-01T02:39:33;-0.20;99.90
23335;DHT22;11839;48.598;8.870;2023-03-01T02:42:01;-0.10;99.90
23335;DHT22;11839;48.598;8.870;2023-03-01T02:44:29;0.20;99.90
23335;DHT22;11839;48.598;8.870;2023-03-01T02:47:01;0.20;99.90
23335;DHT22;11839;48.598;8.870;2023-03-01T02:49:31;0.10;99.90
23335;DHT22;11839;48.598;8.870;2023-03-01T02:52:21;0.00;99.90
23335;DHT22;11839;48.598;8.870;2023-03-01T02:54:52;-0.10;99.90
23335;DHT22;11839;48.598;8.870;2023-03-01T02:57:23;0.10;99.90
23335;DHT22;11839;48.598;8.870;2023-03-01T02:59:52;0.20;99.90
23335;DHT22;11839;48.598;8.870;2023-03-01T03:02:23;0.30;99.90
23335;DHT22;11839;48.598;8.870;2023-03-01T03:05:06;0.10;99.90
23335;DHT22;11839;48.598;8.870;2023-03-01T03:07:34;-0.10;99.90
23335;DHT22;11839;48.598;8.870;2023-03-01T03:10:02;-0.10;99.90
23335;DHT22;11839;48.598;8.870;2023-03-01T03:12:29;-0.10;99.90
23335;DHT22;11839;48.598;8.870;2023-03-01T03:14:56;-0.20;99.90
23335;DHT22;11839;48.598;8.870;2023-03-01T03:17:24;-0.30;99.90
23335;DHT22;11839;48.598;8.870;2023-03-01T03:19:51;-0.20;99.90
23335;DHT22;11839;48.598;8.870;2023-03-01T03:22:18;-0.30;99.90
23335;DHT22;11839;48.598;8.870;2023-03-01T03:24:45;-0.10;99.90
23335;DHT22;11839;48.598;8.870;2023-03-01T03:27:11;-0.10;99.90
23335;DHT22;11839;48.598;8.870;2023-03-01T03:29:38;-0.10;99.90
23335;DHT22;11839;48.598;8.870;2023-03-01T03:32:05;-0.20;99.90
23335;DHT22;11839;48.598;8.870;2023-03-01T03:34:33;0.00;99.90
23335;DHT22;11839;48.598;8.870;2023-03-01T03:37:00;0.10;99.90
23335;DHT22;11839;48.598;8.870;2023-03-01T03:39:27;0.10;99.90
23335;DHT22;11839;48.598;8.870;2023-03-01T03:42:00;-0.10;99.90
23335;DHT22;11839;48.598;8.870;2023-03-01T03:44:27;0.00;99.90
23335;DHT22;11839;48.598;8.870;2023-03-01T03:46:54;0.30;99.90
23335;DHT22;11839;48.598;8.870;2023-03-01T03:49:20;0.30;99.90
23335;DHT22;11839;48.598;8.870;2023-03-01T03:51:48;0.30;99.90
23335;DHT22;11839;48.598;8.870;2023-03-01T03:54:15;0.00;99.90
23335;DHT22;11839;48.598;8.870;2023-03-01T03:56:42;-0.10;99.90
23335;DHT22;11839;48.598;8.870;2023-03-01T03:59:09;0.00;99.90
23335;DHT22;11839;48.598;8.870;2023-03-01T04:01:36;-0.10;99.90
23335;DHT22;11839;48.598;8.870;2023-03-01T04:04:03;-0.10;99.90
23335;DHT22;11839;48.598;8.870;2023-03-01T04:06:31;0.00;99.90
23335;DHT22;11839;48.598;8.870;2023-03-01T04:08:59;0.00;99.90
23335;DHT22;11839;48.598;8.870;2023-03-01T04:11:28;0.00;99.90
23335;DHT22;11839;48.598;8.870;2023-03-01T04:13:57;0.00;99.90
23335;DHT22;11839;48.598;8.870;2023-03-01T04:16:24;-0.10;99.90
23335;DHT22;11839;48.598;8.870;2023-03-01T04:18:51;-0.10;99.90
23335;DHT22;11839;48.598;8.870;2023-03-01T04:21:20;0.20;99.90
23335;DHT22;11839;48.598;8.870;2023-03-01T04:23:47;0.20;99.90
23335;DHT22;11839;48.598;8.870;2023-03-01T04:26:19;0.30;99.90
23335;DHT22;11839;48.598;8.870;2023-03-01T04:28:46;0.30;99.90
23335;DHT22;11839;48.598;8.870;2023-03-01T04:31:17;0.40;99.90
23335;DHT22;11839;48.598;8.870;2023-03-01T04:33:47;0.40;99.90
23335;DHT22;11839;48.598;8.870;2023-03-01T04:36:17;0.40;99.90
23335;DHT22;11839;48.598;8.870;2023-03-01T04:38:45;0.50;99.90
23335;DHT22;11839;48.598;8.870;2023-03-01T04:41:15;0.40;99.90
23335;DHT22;11839;48.598;8.870;2023-03-01T04:43:43;0.50;99.90
23335;DHT22;11839;48.598;8.870;2023-03-01T04:46:12;0.60;99.90
23335;DHT22;11839;48.598;8.870;2023-03-01T04:48:40;0.70;99.90
23335;DHT22;11839;48.598;8.870;2023-03-01T04:51:07;0.50;99.90
23335;DHT22;11839;48.598;8.870;2023-03-01T04:53:35;0.40;99.90
23335;DHT22;11839;48.598;8.870;2023-03-01T04:56:02;0.50;99.90
23335;DHT22;11839;48.598;8.870;2023-03-01T04:58:29;0.50;99.90
23335;DHT22;11839;48.598;8.870;2023-03-01T05:00:58;0.60;99.90
23335;DHT22;11839;48.598;8.870;2023-03-01T05:03:24;0.60;99.90
23335;DHT22;11839;48.598;8.870;2023-03-01T05:05:52;0.60;99.90
23335;DHT22;11839;48.598;8.870;2023-03-01T05:08:19;0.90;99.90
23335;DHT22;11839;48.598;8.870;2023-03-01T05:10:48;0.80;99.90
23335;DHT22;11839;48.598;8.870;2023-03-01T05:13:16;0.60;99.90
23335;DHT22;11839;48.598;8.870;2023-03-01T05:15:47;0.60;99.90
23335;DHT22;11839;48.598;8.870;2023-03-01T05:18:15;0.40;99.90
23335;DHT22;11839;48.598;8.870;2023-03-01T05:20:42;0.60;99.90
23335;DHT22;11839;48.598;8.870;2023-03-01T05:23:10;0.90;99.90
23335;DHT22;11839;48.598;8.870;2023-03-01T05:25:37;1.00;99.90
23335;DHT22;11839;48.598;8.870;2023-03-01T05:28:06;0.80;99.90
23335;DHT22;11839;48.598;8.870;2023-03-01T05:30:33;0.70;99.90
23335;DHT22;11839;48.598;8.870;2023-03-01T05:33:00;0.80;99.90
23335;DHT22;11839;48.598;8.870;2023-03-01T05:35:29;0.80;99.90
23335;DHT22;11839;48.598;8.870;2023-03-01T05:37:58;0.80;99.90
23335;DHT22;11839;48.598;8.870;2023-03-01T05:40:25;0.90;99.90
23335;DHT22;11839;48.598;8.870;2023-03-01T05:42:53;0.90;99.90
23335;DHT22;11839;48.598;8.870;2023-03-01T05:45:21;1.10;99.90
23335;DHT22;11839;48.598;8.870;2023-03-01T05:47:49;1.20;99.90
23335;DHT22;11839;48.598;8.870;2023-03-01T05:50:18;1.00;99.90
23335;DHT22;11839;48.598;8.870;2023-03-01T05:52:48;1.00;99.90
23335;DHT22;11839;48.598;8.870;2023-03-01T05:55:15;1.20;99.90
23335;DHT22;11839;48.598;8.870;2023-03-01T05:57:42;1.40;99.90
23335;DHT22;11839;48.598;8.870;2023-03-01T06:00:10;1.40;99.90
23335;DHT22;11839;48.598;8.870;2023-03-01T06:02:37;1.20;99.90
23335;DHT22;11839;48.598;8.870;2023-03-01T06:05:05;1.20;99.90
23335;DHT22;11839;48.598;8.870;2023-03-01T06:07:32;1.20;99.90
23335;DHT22;11839;48.598;8.870;2023-03-01T06:10:01;1.10;99.90
23335;DHT22;11839;48.598;8.870;2023-03-01T06:12:30;1.30;99.90
23335;DHT22;11839;48.598;8.870;2023-03-01T06:14:57;1.40;99.90
23335;DHT22;11839;48.598;8.870;2023-03-01T06:17:24;1.70;99.90
23335;DHT22;11839;48.598;8.870;2023-03-01T06:19:51;1.70;99.90
23335;DHT22;11839;48.598;8.870;2023-03-01T06:22:17;1.70;99.90
23335;DHT22;11839;48.598;8.870;2023-03-01T06:24:44;1.70;99.90
23335;DHT22;11839;48.598;8.870;2023-03-01T06:27:12;1.70;99.90
23335;DHT22;11839;48.598;8.870;2023-03-01T06:29:39;1.50;99.90
23335;DHT22;11839;48.598;8.870;2023-03-01T06:32:06;1.70;99.90
23335;DHT22;11839;48.598;8.870;2023-03-01T06:34:33;1.50;99.90
23335;DHT22;11839;48.598;8.870;2023-03-01T06:37:00;1.60;99.90
23335;DHT22;11839;48.598;8.870;2023-03-01T06:39:28;1.70;99.90
23335;DHT22;11839;48.598;8.870;2023-03-01T06:41:55;1.80;99.90
23335;DHT22;11839;48.598;8.870;2023-03-01T06:44:23;1.80;99.90
23335;DHT22;11839;48.598;8.870;2023-03-01T06:46:50;1.90;99.90
23335;DHT22;11839;48.598;8.870;2023-03-01T06:49:16;1.80;99.90
23335;DHT22;11839;48.598;8.870;2023-03-01T06:51:44;1.90;99.90
23335;DHT22;11839;48.598;8.870;2023-03-01T06:54:11;2.10;99.90
23335;DHT22;11839;48.598;8.870;2023-03-01T06:56:38;2.00;99.90
23335;DHT22;11839;48.598;8.870;2023-03-01T06:59:05;2.00;99.90
23335;DHT22;11839;48.598;8.870;2023-03-01T07:01:33;2.00;99.90
23335;DHT22;11839;48.598;8.870;2023-03-01T07:04:00;2.00;99.90
23335;DHT22;11839;48.598;8.870;2023-03-01T07:06:26;2.00;99.90
23335;DHT22;11839;48.598;8.870;2023-03-01T07:08:53;2.00;99.90
23335;DHT22;11839;48.598;8.870;2023-03-01T07:11:20;2.00;99.90
23335;DHT22;11839;48.598;8.870;2023-03-01T07:13:48;1.80;99.90
23335;DHT22;11839;48.598;8.870;2023-03-01T07:16:14;1.80;99.90
23335;DHT22;11839;48.598;8.870;2023-03-01T07:18:43;2.00;99.90
23335;DHT22;11839;48.598;8.870;2023-03-01T07:21:13;1.90;99.90
23335;DHT22;11839;48.598;8.870;2023-03-01T07:23:40;1.70;99.90
23335;DHT22;11839;48.598;8.870;2023-03-01T07:26:07;1.60;99.90
23335;DHT22;11839;48.598;8.870;2023-03-01T07:28:34;1.60;99.90
23335;DHT22;11839;48.598;8.870;2023-03-01T07:31:04;1.70;99.90
23335;DHT22;11839;48.598;8.870;2023-03-01T07:33:32;1.70;99.90
23335;DHT22;11839;48.598;8.870;2023-03-01T07:36:02;1.70;99.90
23335;DHT22;11839;48.598;8.870;2023-03-01T07:38:29;1.50;99.90
23335;DHT22;11839;48.598;8.870;2023-03-01T07:41:00;1.60;99.90
23335;DHT22;11839;48.598;8.870;2023-03-01T07:43:27;1.50;99.90
23335;DHT22;11839;48.598;8.870;2023-03-01T07:45:54;1.70;99.90
23335;DHT22;11839;48.598;8.870;2023-03-01T07:48:21;1.60;99.90
23335;DHT22;11839;48.598;8.870;2023-03-01T07:50:48;1.80;99.90
23335;DHT22;11839;48.598;8.870;2023-03-01T07:53:16;1.40;99.90
23335;DHT22;11839;48.598;8.870;2023-03-01T07:55:43;1.50;99.90
23335;DHT22;11839;48.598;8.870;2023-03-01T07:58:09;1.60;99.90
23335;DHT22;11839;48.598;8.870;2023-03-01T08:00:36;1.70;99.90
23335;DHT22;11839;48.598;8.870;2023-03-01T08:03:03;1.70;99.90
23335;DHT22;11839;48.598;8.870;2023-03-01T08:05:30;2.00;99.90
23335;DHT22;11839;48.598;8.870;2023-03-01T08:07:57;2.20;99.90
23335;DHT22;11839;48.598;8.870;2023-03-01T08:10:25;2.20;99.90
23335;DHT22;11839;48.598;8.870;2023-03-01T08:12:52;2.00;99.90
23335;DHT22;11839;48.598;8.870;2023-03-01T08:15:19;1.80;99.90
23335;DHT22;11839;48.598;8.870;2023-03-01T08:17:48;2.00;99.90
23335;DHT22;11839;48.598;8.870;2023-03-01T08:20:15;2.40;99.90
23335;DHT22;11839;48.598;8.870;2023-03-01T08:22:42;2.40;99.90
23335;DHT22;11839;48.598;8.870;2023-03-01T08:25:09;2.40;99.90
23335;DHT22;11839;48.598;8.870;2023-03-01T08:27:37;2.30;99.90
23335;DHT22;11839;48.598;8.870;2023-03-01T08:30:05;2.40;99.90
23335;DHT22;11839;48.598;8.870;2023-03-01T08:32:36;2.40;99.90
23335;DHT22;11839;48.598;8.870;2023-03-01T08:35:04;2.50;99.90
23335;DHT22;11839;48.598;8.870;2023-03-01T08:37:31;2.50;99.90
23335;DHT22;11839;48.598;8.870;2023-03-01T08:39:58;2.80;99.70
23335;DHT22;11839;48.598;8.870;2023-03-01T08:42:25;3.30;99.10
23335;DHT22;11839;48.598;8.870;2023-03-01T08:44:53;3.30;99.00
23335;DHT22;11839;48.598;8.870;2023-03-01T08:47:20;3.20;98.60
23335;DHT22;11839;48.598;8.870;2023-03-01T08:49:48;3.50;98.70
23335;DHT22;11839;48.598;8.870;2023-03-01T08:52:15;3.30;98.50
23335;DHT22;11839;48.598;8.870;2023-03-01T08:54:42;3.80;99.00
23335;DHT22;11839;48.598;8.870;2023-03-01T08:57:09;3.60;97.90
23335;DHT22;11839;48.598;8.870;2023-03-01T08:59:36;3.70;98.00
23335;DHT22;11839;48.598;8.870;2023-03-01T09:02:04;3.70;98.00
23335;DHT22;11839;48.598;8.870;2023-03-01T09:04:31;3.90;97.40
23335;DHT22;11839;48.598;8.870;2023-03-01T09:06:58;3.60;97.20
23335;DHT22;11839;48.598;8.870;2023-03-01T09:09:25;3.10;97.10
23335;DHT22;11839;48.598;8.870;2023-03-01T09:11:52;3.10;97.30
23335;DHT22;11839;48.598;8.870;2023-03-01T09:14:19;3.20;97.20
23335;DHT22;11839;48.598;8.870;2023-03-01T09:16:46;3.40;97.10
23335;DHT22;11839;48.598;8.870;2023-03-01T09:19:14;3.70;96.80
23335;DHT22;11839;48.598;8.870;2023-03-01T09:21:42;3.80;96.70
23335;DHT22;11839;48.598;8.870;2023-03-01T09:24:19;3.60;96.80
23335;DHT22;11839;48.598;8.870;2023-03-01T09:26:47;3.50;96.90
23335;DHT22;11839;48.598;8.870;2023-03-01T09:29:14;3.40;97.10
23335;DHT22;11839;48.598;8.870;2023-03-01T09:31:42;3.70;96.90
23335;DHT22;11839;48.598;8.870;2023-03-01T09:34:09;4.00;96.60
23335;DHT22;11839;48.598;8.870;2023-03-01T09:36:38;4.50;96.40
23335;DHT22;11839;48.598;8.870;2023-03-01T09:39:05;4.40;96.00
23335;DHT22;11839;48.598;8.870;2023-03-01T09:41:49;4.00;96.00
23335;DHT22;11839;48.598;8.870;2023-03-01T09:44:24;4.20;96.30
23335;DHT22;11839;48.598;8.870;2023-03-01T09:46:53;4.60;96.30
23335;DHT22;11839;48.598;8.870;2023-03-01T09:49:24;4.50;96.00
23335;DHT22;11839;48.598;8.870;2023-03-01T09:52:00;4.60;95.90
23335;DHT22;11839;48.598;8.870;2023-03-01T09:54:30;4.20;95.50
23335;DHT22;11839;48.598;8.870;2023-03-01T09:57:05;4.10;96.00
23335;DHT22;11839;48.598;8.870;2023-03-01T09:59:44;3.70;96.40
23335;DHT22;11839;48.598;8.870;2023-03-01T10:02:26;4.10;96.60
23335;DHT22;11839;48.598;8.870;2023-03-01T10:05:04;4.80;95.80
23335;DHT22;11839;48.598;8.870;2023-03-01T10:07:43;5.20;95.10
23335;DHT22;11839;48.598;8.870;2023-03-01T10:10:27;5.10;95.20
23335;DHT22;11839;48.598;8.870;2023-03-01T10:12:55;4.90;95.20
23335;DHT22;11839;48.598;8.870;2023-03-01T10:15:32;4.80;95.00
23335;DHT22;11839;48.598;8.870;2023-03-01T10:18:04;4.80;94.80
23335;DHT22;11839;48.598;8.870;2023-03-01T10:20:43;4.80;95.10
23335;DHT22;11839;48.598;8.870;2023-03-01T10:23:12;5.40;94.80
23335;DHT22;11839;48.598;8.870;2023-03-01T10:25:56;5.60;94.40
23335;DHT22;11839;48.598;8.870;2023-03-01T10:28:31;5.30;94.10
23335;DHT22;11839;48.598;8.870;2023-03-01T10:31:03;5.30;94.50
23335;DHT22;11839;48.598;8.870;2023-03-01T10:33:32;5.30;94.20
23335;DHT22;11839;48.598;8.870;2023-03-01T10:36:00;5.30;94.30
23335;DHT22;11839;48.598;8.870;2023-03-01T10:38:31;5.70;94.30
23335;DHT22;11839;48.598;8.870;2023-03-01T10:41:17;6.30;93.60
23335;DHT22;11839;48.598;8.870;2023-03-01T10:43:46;6.10;93.30
23335;DHT22;11839;48.598;8.870;2023-03-01T10:46:24;6.20;93.30
23335;DHT22;11839;48.598;8.870;2023-03-01T10:49:07;5.90;93.30
23335;DHT22;11839;48.598;8.870;2023-03-01T10:51:40;5.90;94.00
23335;DHT22;11839;48.598;8.870;2023-03-01T10:54:17;6.30;93.50
23335;DHT22;11839;48.598;8.870;2023-03-01T10:56:50;6.40;92.60
23335;DHT22;11839;48.598;8.870;2023-03-01T10:59:27;6.40;92.90
23335;DHT22;11839;48.598;8.870;2023-03-01T11:02:16;6.10;93.20
23335;DHT22;11839;48.598;8.870;2023-03-01T11:04:57;6.00;93.40
23335;DHT22;11839;48.598;8.870;2023-03-01T11:07:24;5.60;93.30
23335;DHT22;11839;48.598;8.870;2023-03-01T11:09:53;5.50;93.70
23335;DHT22;11839;48.598;8.870;2023-03-01T11:12:21;5.50;93.70
23335;DHT22;11839;48.598;8.870;2023-03-01T11:14:49;5.90;93.70
23335;DHT22;11839;48.598;8.870;2023-03-01T11:17:21;6.30;93.50
23335;DHT22;11839;48.598;8.870;2023-03-01T11:20:00;6.00;92.70
23335;DHT22;11839;48.598;8.870;2023-03-01T11:22:28;6.10;93.80
23335;DHT22;11839;48.598;8.870;2023-03-01T11:24:56;6.00;93.20
23335;DHT22;11839;48.598;8.870;2023-03-01T11:27:26;5.90;92.90
23335;DHT22;11839;48.598;8.870;2023-03-01T11:29:59;6.00;93.50
23335;DHT22;11839;48.598;8.870;2023-03-01T11:32:29;6.20;93.20
23335;DHT22;11839;48.598;8.870;2023-03-01T11:35:01;6.50;93.10
23335;DHT22;11839;48.598;8.870;2023-03-01T11:37:40;6.60;92.40
23335;DHT22;11839;48.598;8.870;2023-03-01T11:40:16;6.10;92.90
23335;DHT22;11839;48.598;8.870;2023-03-01T11:42:52;6.50;93.10
23335;DHT22;11839;48.598;8.870;2023-03-01T11:45:23;7.10;92.30
23335;DHT22;11839;48.598;8.870;2023-03-01T11:48:14;6.90;91.90
23335;DHT22;11839;48.598;8.870;2023-03-01T11:50:48;6.40;92.30
23335;DHT22;11839;48.598;8.870;2023-03-01T11:53:39;6.10;92.70
23335;DHT22;11839;48.598;8.870;2023-03-01T11:56:20;6.00;93.10
23335;DHT22;11839;48.598;8.870;2023-03-01T11:59:06;6.20;93.20
23335;DHT22;11839;48.598;8.870;2023-03-01T12:01:49;6.50;92.90
23335;DHT22;11839;48.598;8.870;2023-03-01T12:04:49;7.10;92.90
23335;DHT22;11839;48.598;8.870;2023-03-01T12:07:24;7.30;92.10
23335;DHT22;11839;48.598;8.870;2023-03-01T12:10:19;7.40;91.40
23335;DHT22;11839;48.598;8.870;2023-03-01T12:13:01;7.30;92.00
23335;DHT22;11839;48.598;8.870;2023-03-01T12:15:50;7.10;92.40
23335;DHT22;11839;48.598;8.870;2023-03-01T12:21:29;7.40;91.50
23335;DHT22;11839;48.598;8.870;2023-03-01T12:24:21;7.50;91.80
23335;DHT22;11839;48.598;8.870;2023-03-01T12:27:00;7.20;91.70
23335;DHT22;11839;48.598;8.870;2023-03-01T12:29:41;7.50;92.00
23335;DHT22;11839;48.598;8.870;2023-03-01T12:32:17;7.50;91.50
23335;DHT22;11839;48.598;8.870;2023-03-01T12:37:46;7.30;91.80
23335;DHT22;11839;48.598;8.870;2023-03-01T12:40:27;7.20;91.90
23335;DHT22;11839;48.598;8.870;2023-03-01T12:43:08;7.10;91.80
23335;DHT22;11839;48.598;8.870;2023-03-01T12:46:01;7.30;91.60
23335;DHT22;11839;48.598;8.870;2023-03-01T12:48:43;7.00;91.60
23335;DHT22;11839;48.598;8.870;2023-03-01T12:51:16;7.10;91.90
23335;DHT22;11839;48.598;8.870;2023-03-01T12:53:46;7.20;91.60
23335;DHT22;11839;48.598;8.870;2023-03-01T12:56:17;7.30;91.50
23335;DHT22;11839;48.598;8.870;2023-03-01T12:58:54;7.10;91.60
23335;DHT22;11839;48.598;8.870;2023-03-01T13:01:32;7.10;91.60
23335;DHT22;11839;48.598;8.870;2023-03-01T13:04:08;7.40;91.50
23335;DHT22;11839;48.598;8.870;2023-03-01T13:06:44;7.60;91.10
23335;DHT22;11839;48.598;8.870;2023-03-01T13:09:22;7.60;90.80
23335;DHT22;11839;48.598;8.870;2023-03-01T13:11:50;7.70;91.30
23335;DHT22;11839;48.598;8.870;2023-03-01T13:14:44;7.80;90.60
23335;DHT22;11839;48.598;8.870;2023-03-01T13:17:33;7.90;91.00
23335;DHT22;11839;48.598;8.870;2023-03-01T13:20:00;7.90;90.70
23335;DHT22;11839;48.598;8.870;2023-03-01T13:22:29;7.80;90.80
23335;DHT22;11839;48.598;8.870;2023-03-01T13:25:02;8.00;90.80
23335;DHT22;11839;48.598;8.870;2023-03-01T13:27:30;8.00;90.50
23335;DHT22;11839;48.598;8.870;2023-03-01T13:29:59;7.70;90.80
23335;DHT22;11839;48.598;8.870;2023-03-01T13:32:32;7.80;90.70
23335;DHT22;11839;48.598;8.870;2023-03-01T13:35:00;7.80;90.50
23335;DHT22;11839;48.598;8.870;2023-03-01T13:37:31;7.90;90.50
23335;DHT22;11839;48.598;8.870;2023-03-01T13:40:03;8.00;90.80
23335;DHT22;11839;48.598;8.870;2023-03-01T13:42:34;7.90;90.30
23335;DHT22;11839;48.598;8.870;2023-03-01T13:45:04;7.90;90.30
23335;DHT22;11839;48.598;8.870;2023-03-01T13:47:35;8.00;90.50
23335;DHT22;11839;48.598;8.870;2023-03-01T13:50:04;8.10;90.50
23335;DHT22;11839;48.598;8.870;2023-03-01T13:52:38;8.20;90.40
23335;DHT22;11839;48.598;8.870;2023-03-01T13:55:15;8.30;90.20
23335;DHT22;11839;48.598;8.870;2023-03-01T13:57:45;8.30;90.20
23335;DHT22;11839;48.598;8.870;2023-03-01T14:00:27;8.40;89.70
23335;DHT22;11839;48.598;8.870;2023-03-01T14:03:12;8.50;89.40
23335;DHT22;11839;48.598;8.870;2023-03-01T14:05:41;8.60;89.30
23335;DHT22;11839;48.598;8.870;2023-03-01T14:08:23;8.50;89.10
23335;DHT22;11839;48.598;8.870;2023-03-01T14:10:59;8.60;89.30
23335;DHT22;11839;48.598;8.870;2023-03-01T14:13:39;8.90;89.50
23335;DHT22;11839;48.598;8.870;2023-03-01T14:16:20;9.00;88.20
23335;DHT22;11839;48.598;8.870;2023-03-01T14:19:00;9.00;88.00
23335;DHT22;11839;48.598;8.870;2023-03-01T14:21:31;8.90;89.60
23335;DHT22;11839;48.598;8.870;2023-03-01T14:23:58;8.90;88.90
23335;DHT22;11839;48.598;8.870;2023-03-01T14:26:25;8.90;87.90
23335;DHT22;11839;48.598;8.870;2023-03-01T14:28:52;8.70;89.20
23335;DHT22;11839;48.598;8.870;2023-03-01T14:31:38;8.80;89.30
23335;DHT22;11839;48.598;8.870;2023-03-01T14:34:19;8.90;88.00
23335;DHT22;11839;48.598;8.870;2023-03-01T14:36:46;8.90;89.00
23335;DHT22;11839;48.598;8.870;2023-03-01T14:39:17;9.00;88.00
23335;DHT22;11839;48.598;8.870;2023-03-01T14:41:45;8.80;87.90
23335;DHT22;11839;48.598;8.870;2023-03-01T14:44:15;9.00;88.00
23335;DHT22;11839;48.598;8.870;2023-03-01T14:46:45;9.10;88.90
23335;DHT22;11839;48.598;8.870;2023-03-01T14:49:16;8.90;90.00
23335;DHT22;11839;48.598;8.870;2023-03-01T14:51:49;9.00;89.80
23335;DHT22;11839;48.598;8.870;2023-03-01T14:54:21;9.00;90.10
23335;DHT22;11839;48.598;8.870;2023-03-01T14:56:51;9.00;89.80
23335;DHT22;11839;48.598;8.870;2023-03-01T14:59:21;9.00;90.10
23335;DHT22;11839;48.598;8.870;2023-03-01T15:01:49;8.60;90.20
23335;DHT22;11839;48.598;8.870;2023-03-01T15:04:19;8.70;90.40
23335;DHT22;11839;48.598;8.870;2023-03-01T15:06:47;8.70;90.00
23335;DHT22;11839;48.598;8.870;2023-03-01T15:09:15;8.40;90.80
23335;DHT22;11839;48.598;8.870;2023-03-01T15:11:43;8.30;90.90
23335;DHT22;11839;48.598;8.870;2023-03-01T15:14:26;8.20;91.00
23335;DHT22;11839;48.598;8.870;2023-03-01T15:16:54;8.30;91.00
23335;DHT22;11839;48.598;8.870;2023-03-01T15:19:24;8.40;91.30
23335;DHT22;11839;48.598;8.870;2023-03-01T15:21:52;8.60;90.50
23335;DHT22;11839;48.598;8.870;2023-03-01T15:24:23;8.50;90.30
23335;DHT22;11839;48.598;8.870;2023-03-01T15:26:52;8.40;90.20
23335;DHT22;11839;48.598;8.870;2023-03-01T15:29:22;8.10;90.30
23335;DHT22;11839;48.598;8.870;2023-03-01T15:31:56;8.20;90.60
23335;DHT22;11839;48.598;8.870;2023-03-01T15:34:28;8.10;90.50
23335;DHT22;11839;48.598;8.870;2023-03-01T15:36:57;8.20;90.80
23335;DHT22;11839;48.598;8.870;2023-03-01T15:39:38;8.40;90.40
23335;DHT22;11839;48.598;8.870;2023-03-01T15:42:09;8.60;90.10
23335;DHT22;11839;48.598;8.870;2023-03-01T15:44:38;8.70;90.10
23335;DHT22;11839;48.598;8.870;2023-03-01T15:47:30;8.50;90.50
23335;DHT22;11839;48.598;8.870;2023-03-01T15:49:59;8.30;90.50
23335;DHT22;11839;48.598;8.870;2023-03-01T15:52:28;8.20;90.50
23335;DHT22;11839;48.598;8.870;2023-03-01T15:54:58;7.90;90.70
23335;DHT22;11839;48.598;8.870;2023-03-01T15:57:26;8.00;91.30
23335;DHT22;11839;48.598;8.870;2023-03-01T15:59:53;7.90;91.00
23335;DHT22;11839;48.598;8.870;2023-03-01T16:02:20;7.80;91.30
23335;DHT22;11839;48.598;8.870;2023-03-01T16:04:47;7.70;91.40
23335;DHT22;11839;48.598;8.870;2023-03-01T16:07:16;7.70;91.50
23335;DHT22;11839;48.598;8.870;2023-03-01T16:09:43;7.90;91.50
23335;DHT22;11839;48.598;8.870;2023-03-01T16:12:14;8.00;91.40